createdAt,value
2022-11-29T00:01:33.179Z,58.58
2022-11-29T00:04:00.050Z,53.60
2022-11-29T00:06:30.020Z,52.33
2022-11-29T00:08:58.874Z,51.00
2022-11-29T00:11:51.091Z,56.90
2022-11-29T00:14:19.786Z,54.80
2022-11-29T00:16:59.230Z,57.40
2022-11-29T00:19:25.965Z,47.00
2022-11-29T00:21:52.454Z,56.77
2022-11-29T00:24:19.023Z,49.75
2022-11-29T00:26:45.777Z,45.30
2022-11-29T00:29:13.141Z,54.30
2022-11-29T00:31:41.110Z,55.10
2022-11-29T00:34:08.062Z,47.67
2022-11-29T00:36:35.574Z,45.10
2022-11-29T00:39:04.125Z,51.63
2022-11-29T00:41:31.161Z,57.97
2022-11-29T00:43:57.775Z,55.28
2022-11-29T00:46:25.296Z,44.83
2022-11-29T00:48:51.867Z,56.70
2022-11-29T00:51:18.512Z,49.47
2022-11-29T00:53:45.380Z,59.67
2022-11-29T00:56:12.296Z,58.85
2022-11-29T00:58:38.978Z,58.57
2022-11-29T01:01:06.338Z,47.25
2022-11-29T01:03:33.073Z,52.75
2022-11-29T01:06:06.020Z,52.33
2022-11-29T01:08:32.695Z,60.33
2022-11-29T01:11:03.208Z,45.60
2022-11-29T01:13:29.678Z,54.10
2022-11-29T01:15:58.153Z,53.53
2022-11-29T01:18:25.123Z,49.83
2022-11-29T01:21:00.274Z,44.97
2022-11-29T01:23:27.739Z,58.10
2022-11-29T01:26:00.355Z,49.53
2022-11-29T01:28:28.198Z,47.20
2022-11-29T01:30:55.644Z,49.17
2022-11-29T01:33:24.269Z,50.83
2022-11-29T01:35:53.605Z,57.73
2022-11-29T01:38:21.837Z,47.58
2022-11-29T01:41:18.358Z,58.05
2022-11-29T01:44:14.057Z,47.97
2022-11-29T01:46:47.878Z,42.63
2022-11-29T01:49:32.473Z,40.80
2022-11-29T01:52:14.437Z,49.30
2022-11-29T01:54:53.128Z,40.38
2022-11-29T01:57:21.988Z,39.88
2022-11-29T01:59:56.216Z,38.50
2022-11-29T02:02:36.766Z,42.70
2022-11-29T02:05:04.649Z,44.97
2022-11-29T02:07:31.302Z,45.75
2022-11-29T02:09:57.893Z,39.03
2022-11-29T02:12:48.452Z,41.30
2022-11-29T02:15:22.495Z,43.10
2022-11-29T02:18:07.616Z,38.33
2022-11-29T02:20:59.164Z,39.95
2022-11-29T02:23:25.577Z,35.58
2022-11-29T02:26:18.883Z,31.85
2022-11-29T02:29:07.681Z,36.10
2022-11-29T02:32:11.323Z,26.75
2022-11-29T02:34:53.528Z,30.92
2022-11-29T02:37:38.272Z,36.28
2022-11-29T02:40:28.360Z,31.98
2022-11-29T02:43:14.809Z,35.77
2022-11-29T02:45:53.568Z,31.10
2022-11-29T02:48:54.298Z,38.35
2022-11-29T02:51:44.023Z,32.15
2022-11-29T02:54:37.734Z,32.22
2022-11-29T02:57:23.879Z,35.50
2022-11-29T03:00:02.445Z,49.30
2022-11-29T03:02:51.051Z,41.95
2022-11-29T03:05:30.326Z,42.88
2022-11-29T03:08:19.752Z,48.70
2022-11-29T03:11:18.412Z,48.20
2022-11-29T03:13:56.480Z,55.95
2022-11-29T03:16:42.572Z,50.38
2022-11-29T03:19:31.014Z,39.60
2022-11-29T03:22:06.536Z,44.63
2022-11-29T03:24:45.931Z,62.23
2022-11-29T03:27:23.055Z,43.17
2022-11-29T03:29:56.878Z,45.15
2022-11-29T03:32:29.018Z,40.70
2022-11-29T03:34:58.385Z,42.63
2022-11-29T03:37:53.106Z,41.50
2022-11-29T03:40:25.573Z,36.08
2022-11-29T03:43:09.036Z,33.60
2022-11-29T03:45:53.675Z,48.42
2022-11-29T03:48:41.048Z,40.53
2022-11-29T03:51:12.104Z,54.20
2022-11-29T03:54:02.850Z,50.20
2022-11-29T03:56:38.519Z,42.88
2022-11-29T03:59:24.230Z,72.30
2022-11-29T04:02:09.319Z,41.72
2022-11-29T04:05:11.269Z,52.47
2022-11-29T04:08:01.092Z,65.90
2022-11-29T04:11:01.455Z,37.85
2022-11-29T04:13:40.099Z,47.95
2022-11-29T04:16:39.847Z,48.28
2022-11-29T04:19:29.180Z,40.97
2022-11-29T04:21:58.313Z,34.83
2022-11-29T04:24:52.659Z,39.08
2022-11-29T04:27:37.962Z,50.22
2022-11-29T04:30:04.259Z,38.53
2022-11-29T04:32:49.312Z,33.80
2022-11-29T04:35:38.824Z,28.58
2022-11-29T04:38:29.388Z,42.00
2022-11-29T04:41:40.811Z,31.30
2022-11-29T04:44:45.054Z,29.35
2022-11-29T04:47:23.885Z,26.53
2022-11-29T04:50:08.796Z,26.33
2022-11-29T04:52:49.321Z,52.28
2022-11-29T04:55:35.392Z,39.97
2022-11-29T04:58:43.976Z,35.50
2022-11-29T05:01:22.261Z,43.53
2022-11-29T05:04:04.958Z,39.72
2022-11-29T05:07:11.735Z,37.38
2022-11-29T05:10:10.129Z,28.85
2022-11-29T05:12:55.586Z,31.63
2022-11-29T05:15:49.812Z,38.43
2022-11-29T05:18:53.746Z,30.75
2022-11-29T05:21:48.127Z,27.08
2022-11-29T05:24:34.262Z,28.90
2022-11-29T05:27:09.764Z,22.95
2022-11-29T05:29:46.803Z,22.03
2022-11-29T05:32:32.565Z,22.30
2022-11-29T05:35:28.915Z,24.83
2022-11-29T05:38:06.092Z,18.05
2022-11-29T05:41:13.029Z,19.23
2022-11-29T05:44:13.739Z,18.47
2022-11-29T05:46:55.740Z,24.90
2022-11-29T05:49:49.557Z,16.90
2022-11-29T05:52:25.054Z,18.58
2022-11-29T05:55:10.068Z,24.23
2022-11-29T05:57:47.180Z,22.30
2022-11-29T06:00:16.757Z,26.25
2022-11-29T06:03:13.680Z,26.85
2022-11-29T06:05:49.868Z,27.13
2022-11-29T06:08:25.541Z,26.73
2022-11-29T06:11:29.605Z,22.73
2022-11-29T06:14:25.929Z,25.00
2022-11-29T06:17:01.735Z,21.02
2022-11-29T06:19:56.720Z,23.20
2022-11-29T06:22:50.337Z,21.15
2022-11-29T06:26:03.998Z,21.97
2022-11-29T06:28:44.000Z,28.65
2022-11-29T06:31:31.789Z,28.48
2022-11-29T06:34:10.330Z,27.67
2022-11-29T06:36:48.335Z,37.75
2022-11-29T06:39:14.960Z,33.33
2022-11-29T06:41:41.308Z,28.05
2022-11-29T06:44:08.461Z,31.70
2022-11-29T06:46:47.043Z,31.05
2022-11-29T06:49:23.933Z,32.40
2022-11-29T06:52:18.005Z,32.67
2022-11-29T06:55:08.862Z,38.72
2022-11-29T06:57:59.727Z,26.42
2022-11-29T07:00:31.984Z,42.22
2022-11-29T07:03:43.618Z,22.75
2022-11-29T07:06:25.342Z,23.53
2022-11-29T07:08:56.472Z,34.05
2022-11-29T07:11:23.181Z,23.98
2022-11-29T07:13:49.771Z,30.50
2022-11-29T07:16:22.692Z,32.25
2022-11-29T07:19:15.071Z,42.20
2022-11-29T07:21:55.894Z,28.20
2022-11-29T07:24:33.030Z,28.75
2022-11-29T07:27:08.507Z,21.42
2022-11-29T07:29:46.042Z,15.85
2022-11-29T07:32:34.313Z,18.17
2022-11-29T07:35:28.443Z,21.33
2022-11-29T07:38:10.119Z,25.17
2022-11-29T07:40:49.631Z,15.70
2022-11-29T07:43:37.119Z,17.40
2022-11-29T07:46:03.662Z,21.77
2022-11-29T07:48:30.146Z,17.90
2022-11-29T07:50:56.937Z,14.70
2022-11-29T07:53:24.470Z,21.08
2022-11-29T07:55:51.411Z,20.65
2022-11-29T07:58:18.659Z,16.97
2022-11-29T08:00:45.693Z,15.80
2022-11-29T08:03:12.762Z,13.77
2022-11-29T08:05:40.338Z,19.50
2022-11-29T08:08:06.881Z,10.60
2022-11-29T08:10:34.214Z,13.20
2022-11-29T08:13:00.654Z,17.73
2022-11-29T08:15:27.512Z,18.52
2022-11-29T08:17:53.865Z,20.85
2022-11-29T08:20:20.594Z,21.60
2022-11-29T08:22:57.750Z,20.23
2022-11-29T08:25:25.402Z,16.70
2022-11-29T08:27:52.179Z,22.45
2022-11-29T08:30:22.068Z,19.77
2022-11-29T08:32:51.674Z,19.80
2022-11-29T08:35:20.334Z,25.07
2022-11-29T08:37:46.830Z,18.75
2022-11-29T08:40:13.578Z,16.02
2022-11-29T08:42:39.935Z,21.90
2022-11-29T08:45:07.710Z,21.75
2022-11-29T08:47:37.029Z,16.93
2022-11-29T08:50:12.138Z,24.02
2022-11-29T08:52:59.789Z,19.23
2022-11-29T08:55:29.023Z,20.67
2022-11-29T08:58:02.711Z,17.73
2022-11-29T09:00:29.085Z,17.20
2022-11-29T09:02:55.467Z,22.95
2022-11-29T09:05:21.899Z,25.73
2022-11-29T09:07:48.319Z,18.25
2022-11-29T09:10:14.804Z,21.38
2022-11-29T09:12:41.357Z,18.90
2022-11-29T09:15:11.133Z,20.77
2022-11-29T09:17:37.570Z,24.50
2022-11-29T09:20:05.270Z,15.85
2022-11-29T09:22:31.810Z,14.98
2022-11-29T09:24:58.204Z,22.90
2022-11-29T09:27:24.570Z,17.83
2022-11-29T09:29:50.932Z,15.40
2022-11-29T09:34:44.822Z,15.60
2022-11-29T09:37:11.500Z,17.93
2022-11-29T09:39:38.306Z,16.02
2022-11-29T09:42:12.453Z,15.32
2022-11-29T09:45:01.132Z,14.18
2022-11-29T09:47:49.612Z,10.95
2022-11-29T09:50:36.217Z,13.90
2022-11-29T09:53:15.896Z,14.00
2022-11-29T09:55:48.250Z,11.13
2022-11-29T09:58:21.527Z,20.98
2022-11-29T10:00:56.383Z,18.67
2022-11-29T10:03:29.119Z,15.17
2022-11-29T10:06:06.021Z,18.33
2022-11-29T10:09:01.643Z,16.75
2022-11-29T10:11:34.996Z,20.25
2022-11-29T10:14:11.385Z,18.77
2022-11-29T10:16:50.843Z,18.97
2022-11-29T10:19:42.606Z,18.73
2022-11-29T10:22:25.662Z,17.90
2022-11-29T10:24:57.462Z,17.50
2022-11-29T10:27:25.023Z,17.08
2022-11-29T10:29:51.834Z,14.00
2022-11-29T10:32:21.431Z,16.67
2022-11-29T10:34:49.666Z,17.05
2022-11-29T10:37:19.916Z,17.50
2022-11-29T10:39:54.987Z,18.83
2022-11-29T10:42:42.083Z,17.13
2022-11-29T10:45:19.544Z,14.18
2022-11-29T10:47:48.114Z,12.55
2022-11-29T10:50:21.267Z,14.95
2022-11-29T10:52:47.797Z,19.83
2022-11-29T10:55:16.961Z,15.70
2022-11-29T10:58:29.006Z,15.98
2022-11-29T11:01:09.176Z,13.68
2022-11-29T11:03:39.981Z,16.13
2022-11-29T11:06:11.972Z,14.95
2022-11-29T11:08:42.738Z,14.23
2022-11-29T11:11:09.757Z,24.00
2022-11-29T11:13:37.970Z,17.27
2022-11-29T11:16:17.403Z,14.15
2022-11-29T11:18:45.555Z,13.82
2022-11-29T11:21:15.424Z,15.27
2022-11-29T11:23:44.678Z,14.95
2022-11-29T11:26:14.552Z,19.75
2022-11-29T11:28:49.566Z,13.10
2022-11-29T11:31:25.277Z,15.20
2022-11-29T11:33:51.784Z,15.87
2022-11-29T11:36:21.025Z,15.02
2022-11-29T11:39:18.850Z,18.38
2022-11-29T11:42:04.542Z,14.38
2022-11-29T11:44:48.465Z,17.40
2022-11-29T11:47:28.952Z,19.93
2022-11-29T11:50:04.764Z,16.17
2022-11-29T11:52:44.842Z,18.52
2022-11-29T11:55:21.296Z,15.88
2022-11-29T11:57:58.726Z,13.75
2022-11-29T12:01:03.591Z,15.07
2022-11-29T12:04:08.464Z,12.65
2022-11-29T12:06:44.899Z,14.43
2022-11-29T12:09:25.228Z,17.55
2022-11-29T12:12:06.245Z,16.75
2022-11-29T12:14:56.593Z,15.60
2022-11-29T12:17:32.098Z,15.52
2022-11-29T12:20:13.841Z,15.25
2022-11-29T12:23:14.426Z,14.52
2022-11-29T12:25:52.013Z,13.90
2022-11-29T12:28:21.038Z,14.10
2022-11-29T12:31:05.714Z,15.73
2022-11-29T12:33:39.833Z,15.32
2022-11-29T12:36:12.018Z,17.15
2022-11-29T12:39:12.737Z,19.92
2022-11-29T12:42:02.973Z,15.63
2022-11-29T12:45:12.596Z,13.30
2022-11-29T12:47:52.279Z,13.60
2022-11-29T12:50:22.301Z,14.63
2022-11-29T12:53:44.275Z,13.15
2022-11-29T12:56:27.124Z,14.60
2022-11-29T12:59:17.499Z,16.88
2022-11-29T13:02:08.317Z,20.08
2022-11-29T13:04:51.728Z,14.48
2022-11-29T13:07:37.905Z,19.20
2022-11-29T13:10:38.543Z,16.63
2022-11-29T13:13:29.869Z,12.43
2022-11-29T13:16:20.652Z,14.80
2022-11-29T13:19:05.128Z,14.60
2022-11-29T13:21:37.503Z,15.25
2022-11-29T13:24:09.168Z,15.10
2022-11-29T13:26:38.635Z,13.50
2022-11-29T13:29:07.460Z,14.55
2022-11-29T13:31:34.589Z,15.27
2022-11-29T13:34:14.999Z,14.45
2022-11-29T13:36:54.522Z,17.43
2022-11-29T13:39:48.855Z,14.02
2022-11-29T13:42:37.126Z,16.60
2022-11-29T13:45:15.759Z,13.50
2022-11-29T13:47:57.976Z,17.58
2022-11-29T13:50:41.347Z,12.70
2022-11-29T13:53:18.941Z,12.75
2022-11-29T13:56:00.831Z,16.70
2022-11-29T13:58:33.307Z,20.42
2022-11-29T14:01:09.665Z,14.10
2022-11-29T14:03:57.512Z,15.03
2022-11-29T14:06:40.672Z,12.85
2022-11-29T14:09:21.600Z,14.80
2022-11-29T14:11:56.883Z,13.48
2022-11-29T14:14:33.036Z,13.00
2022-11-29T14:17:02.586Z,13.57
2022-11-29T14:19:36.879Z,12.05
2022-11-29T14:22:05.312Z,11.70
2022-11-29T14:24:38.064Z,14.10
2022-11-29T14:27:10.393Z,16.60
2022-11-29T14:29:55.229Z,15.90
2022-11-29T14:32:35.601Z,12.90
2022-11-29T14:35:11.139Z,17.60
2022-11-29T14:38:04.276Z,16.95
2022-11-29T14:40:36.297Z,18.55
2022-11-29T14:43:14.992Z,20.30
2022-11-29T14:45:41.821Z,13.95
2022-11-29T14:48:27.182Z,16.67
2022-11-29T14:51:19.550Z,16.30
2022-11-29T14:53:49.097Z,17.45
2022-11-29T14:56:35.187Z,16.33
2022-11-29T14:59:39.017Z,23.08
2022-11-29T15:02:28.605Z,16.58
2022-11-29T15:04:57.080Z,18.08
2022-11-29T15:07:33.265Z,13.20
2022-11-29T15:10:02.976Z,16.40
2022-11-29T15:12:37.613Z,14.82
2022-11-29T15:15:53.523Z,18.35
2022-11-29T15:18:40.449Z,15.68
2022-11-29T15:21:34.568Z,18.02
2022-11-29T15:24:13.211Z,12.37
2022-11-29T15:26:54.870Z,18.52
2022-11-29T15:29:21.608Z,14.02
2022-11-29T15:31:57.448Z,18.55
2022-11-29T15:34:26.836Z,16.92
2022-11-29T15:36:53.418Z,16.60
2022-11-29T15:39:45.970Z,16.80
2022-11-29T15:42:15.705Z,20.50
2022-11-29T15:44:47.340Z,16.33
2022-11-29T15:47:25.103Z,19.42
2022-11-29T15:49:53.681Z,16.43
2022-11-29T15:52:35.819Z,21.50
2022-11-29T15:55:06.482Z,22.30
2022-11-29T15:57:38.603Z,24.75
2022-11-29T16:00:07.816Z,17.80
2022-11-29T16:02:38.140Z,20.67
2022-11-29T16:05:18.272Z,12.90
2022-11-29T16:07:47.302Z,14.32
2022-11-29T16:10:20.666Z,16.60
2022-11-29T16:12:56.246Z,22.92
2022-11-29T16:15:36.182Z,19.17
2022-11-29T16:18:12.117Z,23.58
2022-11-29T16:20:39.342Z,21.55
2022-11-29T16:23:15.842Z,14.50
2022-11-29T16:26:02.577Z,20.80
2022-11-29T16:28:34.609Z,16.33
2022-11-29T16:31:01.294Z,16.98
2022-11-29T16:33:28.070Z,17.95
2022-11-29T16:36:15.923Z,19.25
2022-11-29T16:38:53.593Z,17.30
2022-11-29T16:41:31.130Z,18.63
2022-11-29T16:43:58.065Z,17.58
2022-11-29T16:46:26.004Z,21.67
2022-11-29T16:48:54.003Z,19.55
2022-11-29T16:51:37.611Z,17.83
2022-11-29T16:54:24.419Z,18.80
2022-11-29T16:56:52.408Z,15.48
2022-11-29T16:59:26.809Z,16.83
2022-11-29T17:01:55.217Z,19.80
2022-11-29T17:04:24.004Z,20.95
2022-11-29T17:06:53.288Z,18.67
2022-11-29T17:09:29.387Z,19.30
2022-11-29T17:11:56.916Z,18.98
2022-11-29T17:14:23.433Z,21.30
2022-11-29T17:16:50.172Z,19.60
2022-11-29T17:19:16.848Z,20.87
2022-11-29T17:21:43.653Z,17.55
2022-11-29T17:24:13.566Z,21.60
2022-11-29T17:26:41.472Z,18.75
2022-11-29T17:29:09.222Z,19.13
2022-11-29T17:31:35.871Z,16.90
2022-11-29T17:34:02.754Z,19.10
2022-11-29T17:36:29.335Z,21.83
2022-11-29T17:38:55.938Z,18.60
2022-11-29T17:41:24.196Z,20.48
2022-11-29T17:43:52.070Z,19.50
2022-11-29T17:46:27.267Z,18.50
2022-11-29T17:48:54.722Z,16.00
2022-11-29T17:51:50.460Z,14.70
2022-11-29T17:54:10.820Z,14.73
2022-11-29T17:56:37.187Z,15.27
2022-11-29T17:59:04.418Z,16.20
2022-11-29T18:01:33.625Z,16.17
2022-11-29T18:04:02.098Z,16.40
2022-11-29T18:06:33.462Z,19.05
2022-11-29T18:09:01.937Z,13.70
2022-11-29T18:11:31.626Z,16.02
2022-11-29T18:13:59.803Z,13.10
2022-11-29T18:16:31.415Z,13.48
2022-11-29T18:19:06.939Z,16.35
2022-11-29T18:21:34.727Z,20.50
2022-11-29T18:24:02.769Z,17.27
2022-11-29T18:26:30.565Z,16.58
2022-11-29T18:28:57.769Z,13.65
2022-11-29T18:31:28.144Z,11.52
2022-11-29T18:34:00.147Z,13.80
2022-11-29T18:36:32.915Z,12.68
2022-11-29T18:39:11.285Z,12.40
2022-11-29T18:41:38.280Z,12.82
2022-11-29T18:44:09.955Z,12.60
2022-11-29T18:46:38.285Z,11.57
2022-11-29T18:49:07.036Z,11.27
2022-11-29T18:51:34.688Z,15.75
2022-11-29T18:54:01.773Z,16.08
2022-11-29T18:56:30.357Z,12.10
2022-11-29T18:59:16.644Z,13.93
2022-11-29T19:01:45.168Z,14.13
2022-11-29T19:04:14.923Z,11.38
2022-11-29T19:06:42.252Z,16.95
2022-11-29T19:09:16.104Z,12.52
2022-11-29T19:11:42.657Z,15.30
2022-11-29T19:14:11.668Z,13.40
2022-11-29T19:16:40.436Z,15.93
2022-11-29T19:19:06.944Z,21.55
2022-11-29T19:21:34.619Z,30.65
2022-11-29T19:24:03.675Z,20.67
2022-11-29T19:26:31.358Z,14.88
2022-11-29T19:29:00.606Z,17.27
2022-11-29T19:31:28.019Z,16.38
2022-11-29T19:33:55.890Z,13.75
2022-11-29T19:36:30.770Z,15.50
2022-11-29T19:38:59.832Z,17.15
2022-11-29T19:41:37.324Z,13.55
2022-11-29T19:44:06.546Z,14.98
2022-11-29T19:46:41.290Z,15.48
2022-11-29T19:49:08.656Z,10.80
2022-11-29T19:51:35.830Z,10.25
2022-11-29T19:54:05.146Z,16.08
2022-11-29T19:56:32.702Z,12.20
2022-11-29T19:59:02.681Z,17.48
2022-11-29T20:01:39.666Z,18.60
2022-11-29T20:04:07.971Z,15.50
2022-11-29T20:06:35.004Z,14.05
2022-11-29T20:09:02.231Z,10.40
2022-11-29T20:11:29.401Z,14.43
2022-11-29T20:13:59.031Z,12.73
2022-11-29T20:16:26.649Z,13.10
2022-11-29T20:18:53.746Z,12.90
2022-11-29T20:21:25.867Z,11.02
2022-11-29T20:24:04.121Z,15.57
2022-11-29T20:26:32.927Z,16.07
2022-11-29T20:29:00.253Z,14.82
2022-11-29T20:31:26.815Z,15.90
2022-11-29T20:33:56.335Z,16.90
2022-11-29T20:36:45.059Z,11.50
2022-11-29T20:39:28.865Z,11.00
2022-11-29T20:42:14.026Z,11.88
2022-11-29T20:44:51.836Z,10.77
2022-11-29T20:47:24.081Z,12.90
2022-11-29T20:49:51.061Z,17.80
2022-11-29T20:52:42.072Z,12.83
2022-11-29T20:55:08.735Z,8.85
2022-11-29T20:57:38.170Z,10.98
2022-11-29T21:00:11.312Z,13.82
2022-11-29T21:02:38.322Z,14.30
2022-11-29T21:05:05.179Z,12.00
2022-11-29T21:07:31.603Z,17.98
2022-11-29T21:10:01.131Z,22.70
2022-11-29T21:12:29.204Z,13.68
2022-11-29T21:14:55.817Z,18.95
2022-11-29T21:17:22.568Z,12.33
2022-11-29T21:19:49.247Z,15.32
2022-11-29T21:22:34.332Z,10.55
2022-11-29T21:25:43.178Z,17.30
2022-11-29T21:28:14.784Z,19.25
2022-11-29T21:30:42.529Z,15.37
2022-11-29T21:35:47.353Z,13.55
2022-11-29T21:38:20.020Z,20.10
2022-11-29T21:40:46.422Z,11.48
2022-11-29T21:43:12.748Z,9.03
2022-11-29T21:45:39.106Z,9.88
2022-11-29T21:48:25.551Z,12.65
2022-11-29T21:50:51.938Z,11.60
2022-11-29T21:53:18.320Z,12.68
2022-11-29T21:55:44.725Z,12.87
2022-11-29T21:58:11.113Z,13.60
2022-11-29T22:00:37.800Z,11.82
2022-11-29T22:03:04.429Z,10.52
2022-11-29T22:05:30.853Z,14.52
2022-11-29T22:07:57.291Z,10.57
2022-11-29T22:10:23.695Z,9.85
2022-11-29T22:12:52.541Z,10.07
2022-11-29T22:15:24.613Z,10.45
2022-11-29T22:17:51.361Z,11.35
2022-11-29T22:20:17.744Z,10.57
2022-11-29T22:22:45.186Z,13.32
2022-11-29T22:25:11.584Z,12.13
2022-11-29T22:27:38.174Z,10.63
2022-11-29T22:30:05.448Z,10.60
2022-11-29T22:32:31.780Z,10.90
2022-11-29T22:34:58.100Z,12.40
2022-11-29T22:37:24.555Z,14.07
2022-11-29T22:39:50.895Z,13.10
2022-11-29T22:42:17.304Z,12.38
2022-11-29T22:44:44.021Z,13.17
2022-11-29T22:47:10.590Z,12.95
2022-11-29T22:49:36.989Z,14.70
2022-11-29T22:52:03.513Z,15.60
2022-11-29T22:54:29.892Z,17.30
2022-11-29T22:56:56.338Z,14.80
2022-11-29T22:59:22.713Z,15.65
2022-11-29T23:01:49.119Z,15.85
2022-11-29T23:04:15.740Z,16.38
2022-11-29T23:06:44.336Z,16.02
2022-11-29T23:09:16.536Z,15.70
2022-11-29T23:11:45.023Z,17.90
2022-11-29T23:14:12.184Z,17.48
2022-11-29T23:16:38.751Z,15.60
2022-11-29T23:19:05.202Z,15.13
2022-11-29T23:21:35.106Z,17.67
2022-11-29T23:24:02.295Z,17.63
2022-11-29T23:26:36.461Z,17.90
2022-11-29T23:29:03.935Z,18.98
2022-11-29T23:31:30.658Z,19.15
2022-11-29T23:33:57.083Z,17.13
2022-11-29T23:36:23.714Z,17.55
2022-11-29T23:38:50.064Z,19.33
2022-11-29T23:41:16.523Z,18.02
2022-11-29T23:43:43.179Z,16.70
2022-11-29T23:46:22.143Z,17.60
2022-11-29T23:48:48.917Z,17.75
2022-11-29T23:51:15.846Z,18.27
2022-11-29T23:53:42.823Z,18.30
2022-11-29T23:56:14.949Z,18.48
2022-11-29T23:58:41.893Z,18.80
